sensor_id;sensor_type;location;lat;lon;timestamp;temperature;humidity
14061;DHT22;7105;43.616;1.434;2023-04-24T00:00:04;12.50;99.90
14061;DHT22;7105;43.616;1.434;2023-04-24T00:02:38;12.60;99.90
14061;DHT22;7105;43.616;1.434;2023-04-24T00:05:05;12.60;99.90
14061;DHT22;7105;43.616;1.434;2023-04-24T00:07:31;12.50;99.90
14061;DHT22;7105;43.616;1.434;2023-04-24T00:09:57;12.60;99.90
14061;DHT22;7105;43.616;1.434;2023-04-24T00:12:23;12.50;99.90
14061;DHT22;7105;43.616;1.434;2023-04-24T00:14:49;12.40;99.90
14061;DHT22;7105;43.616;1.434;2023-04-24T00:17:15;12.30;99.90
14061;DHT22;7105;43.616;1.434;2023-04-24T00:19:41;12.20;99.90
14061;DHT22;7105;43.616;1.434;2023-04-24T00:22:06;12.30;99.90
14061;DHT22;7105;43.616;1.434;2023-04-24T00:24:32;12.40;99.90
14061;DHT22;7105;43.616;1.434;2023-04-24T00:26:58;12.50;99.90
14061;DHT22;7105;43.616;1.434;2023-04-24T00:29:24;12.50;99.90
14061;DHT22;7105;43.616;1.434;2023-04-24T00:31:50;12.50;99.90
14061;DHT22;7105;43.616;1.434;2023-04-24T00:34:16;12.40;99.90
14061;DHT22;7105;43.616;1.434;2023-04-24T00:36:41;12.30;99.90
14061;DHT22;7105;43.616;1.434;2023-04-24T00:39:07;12.20;99.90
14061;DHT22;7105;43.616;1.434;2023-04-24T00:41:36;12.10;99.90
14061;DHT22;7105;43.616;1.434;2023-04-24T00:44:01;12.10;99.90
14061;DHT22;7105;43.616;1.434;2023-04-24T00:46:28;12.00;99.90
14061;DHT22;7105;43.616;1.434;2023-04-24T00:48:54;12.00;99.90
14061;DHT22;7105;43.616;1.434;2023-04-24T00:51:21;12.00;99.90
14061;DHT22;7105;43.616;1.434;2023-04-24T00:53:47;11.90;99.90
14061;DHT22;7105;43.616;1.434;2023-04-24T00:56:13;12.00;99.90
14061;DHT22;7105;43.616;1.434;2023-04-24T00:58:39;11.90;99.90
14061;DHT22;7105;43.616;1.434;2023-04-24T01:01:07;11.90;99.90
14061;DHT22;7105;43.616;1.434;2023-04-24T01:03:33;11.90;99.90
14061;DHT22;7105;43.616;1.434;2023-04-24T01:05:58;11.90;99.90
14061;DHT22;7105;43.616;1.434;2023-04-24T01:08:24;11.90;99.90
14061;DHT22;7105;43.616;1.434;2023-04-24T01:10:52;11.80;99.90
14061;DHT22;7105;43.616;1.434;2023-04-24T01:13:21;11.80;99.90
14061;DHT22;7105;43.616;1.434;2023-04-24T01:15:47;11.90;99.90
14061;DHT22;7105;43.616;1.434;2023-04-24T01:18:13;11.90;99.90
14061;DHT22;7105;43.616;1.434;2023-04-24T01:20:40;11.90;99.90
14061;DHT22;7105;43.616;1.434;2023-04-24T01:23:08;11.90;99.90
14061;DHT22;7105;43.616;1.434;2023-04-24T01:25:34;11.90;99.90
14061;DHT22;7105;43.616;1.434;2023-04-24T01:28:00;11.90;99.90
14061;DHT22;7105;43.616;1.434;2023-04-24T01:30:27;11.90;99.90
14061;DHT22;7105;43.616;1.434;2023-04-24T01:32:53;12.00;99.90
14061;DHT22;7105;43.616;1.434;2023-04-24T01:35:19;12.10;99.90
14061;DHT22;7105;43.616;1.434;2023-04-24T01:37:45;12.10;99.90
14061;DHT22;7105;43.616;1.434;2023-04-24T01:40:11;12.10;99.90
14061;DHT22;7105;43.616;1.434;2023-04-24T01:42:37;12.10;99.90
14061;DHT22;7105;43.616;1.434;2023-04-24T01:45:04;12.10;99.90
14061;DHT22;7105;43.616;1.434;2023-04-24T01:47:31;12.20;99.90
14061;DHT22;7105;43.616;1.434;2023-04-24T01:49:57;12.20;99.90
14061;DHT22;7105;43.616;1.434;2023-04-24T01:52:23;12.20;99.90
14061;DHT22;7105;43.616;1.434;2023-04-24T01:54:49;12.30;99.90
14061;DHT22;7105;43.616;1.434;2023-04-24T01:57:15;12.30;99.90
14061;DHT22;7105;43.616;1.434;2023-04-24T01:59:41;12.30;99.90
14061;DHT22;7105;43.616;1.434;2023-04-24T02:02:07;12.30;99.90
14061;DHT22;7105;43.616;1.434;2023-04-24T02:04:32;12.20;99.90
14061;DHT22;7105;43.616;1.434;2023-04-24T02:06:58;12.10;99.90
14061;DHT22;7105;43.616;1.434;2023-04-24T02:09:24;12.10;99.90
14061;DHT22;7105;43.616;1.434;2023-04-24T02:11:50;12.20;99.90
14061;DHT22;7105;43.616;1.434;2023-04-24T02:14:16;12.10;99.90
14061;DHT22;7105;43.616;1.434;2023-04-24T02:16:41;12.10;99.90
14061;DHT22;7105;43.616;1.434;2023-04-24T02:19:07;12.10;99.90
14061;DHT22;7105;43.616;1.434;2023-04-24T02:21:33;12.10;99.90
14061;DHT22;7105;43.616;1.434;2023-04-24T02:23:59;12.10;99.90
14061;DHT22;7105;43.616;1.434;2023-04-24T02:26:25;12.00;99.90
14061;DHT22;7105;43.616;1.434;2023-04-24T02:28:51;11.90;99.90
14061;DHT22;7105;43.616;1.434;2023-04-24T02:31:17;11.90;99.90
14061;DHT22;7105;43.616;1.434;2023-04-24T02:33:43;11.90;99.90
14061;DHT22;7105;43.616;1.434;2023-04-24T02:36:08;11.80;99.90
14061;DHT22;7105;43.616;1.434;2023-04-24T02:38:34;11.80;99.90
14061;DHT22;7105;43.616;1.434;2023-04-24T02:41:00;11.90;99.90
14061;DHT22;7105;43.616;1.434;2023-04-24T02:43:27;12.00;99.90
14061;DHT22;7105;43.616;1.434;2023-04-24T02:45:53;12.00;99.90
14061;DHT22;7105;43.616;1.434;2023-04-24T02:48:18;12.10;99.90
14061;DHT22;7105;43.616;1.434;2023-04-24T02:50:46;12.10;99.90
14061;DHT22;7105;43.616;1.434;2023-04-24T02:53:11;12.10;99.90
14061;DHT22;7105;43.616;1.434;2023-04-24T02:55:37;12.20;99.90
14061;DHT22;7105;43.616;1.434;2023-04-24T02:58:03;12.20;99.90
14061;DHT22;7105;43.616;1.434;2023-04-24T03:00:28;12.20;99.90
14061;DHT22;7105;43.616;1.434;2023-04-24T03:02:54;12.20;99.90
14061;DHT22;7105;43.616;1.434;2023-04-24T03:05:20;12.20;99.90
14061;DHT22;7105;43.616;1.434;2023-04-24T03:07:45;12.30;99.90
14061;DHT22;7105;43.616;1.434;2023-04-24T03:10:11;12.20;99.90
14061;DHT22;7105;43.616;1.434;2023-04-24T03:12:37;12.20;99.90
14061;DHT22;7105;43.616;1.434;2023-04-24T03:15:03;12.20;99.90
14061;DHT22;7105;43.616;1.434;2023-04-24T03:17:29;12.20;99.90
14061;DHT22;7105;43.616;1.434;2023-04-24T03:19:54;12.30;99.90
14061;DHT22;7105;43.616;1.434;2023-04-24T03:22:20;12.30;99.90
14061;DHT22;7105;43.616;1.434;2023-04-24T03:24:46;12.20;99.90
14061;DHT22;7105;43.616;1.434;2023-04-24T03:27:11;12.20;99.90
14061;DHT22;7105;43.616;1.434;2023-04-24T03:29:37;12.20;99.90
14061;DHT22;7105;43.616;1.434;2023-04-24T03:32:02;12.30;99.90
14061;DHT22;7105;43.616;1.434;2023-04-24T03:34:28;12.20;99.90
14061;DHT22;7105;43.616;1.434;2023-04-24T03:36:54;12.10;99.90
14061;DHT22;7105;43.616;1.434;2023-04-24T03:39:19;12.00;99.90
14061;DHT22;7105;43.616;1.434;2023-04-24T03:41:45;11.90;99.90
14061;DHT22;7105;43.616;1.434;2023-04-24T03:44:10;11.80;99.90
14061;DHT22;7105;43.616;1.434;2023-04-24T03:46:36;11.70;99.90
14061;DHT22;7105;43.616;1.434;2023-04-24T03:49:02;11.70;99.90
14061;DHT22;7105;43.616;1.434;2023-04-24T03:51:27;11.70;99.90
14061;DHT22;7105;43.616;1.434;2023-04-24T03:53:55;11.60;99.90
14061;DHT22;7105;43.616;1.434;2023-04-24T03:56:21;11.70;99.90
14061;DHT22;7105;43.616;1.434;2023-04-24T03:58:46;11.70;99.90
14061;DHT22;7105;43.616;1.434;2023-04-24T04:01:12;11.70;99.90
14061;DHT22;7105;43.616;1.434;2023-04-24T04:03:38;11.80;99.90
14061;DHT22;7105;43.616;1.434;2023-04-24T04:06:04;11.70;99.90
14061;DHT22;7105;43.616;1.434;2023-04-24T04:08:30;11.70;99.90
14061;DHT22;7105;43.616;1.434;2023-04-24T04:10:55;11.80;99.90
14061;DHT22;7105;43.616;1.434;2023-04-24T04:13:21;11.80;99.90
14061;DHT22;7105;43.616;1.434;2023-04-24T04:15:47;11.80;99.90
14061;DHT22;7105;43.616;1.434;2023-04-24T04:18:12;11.80;99.90
14061;DHT22;7105;43.616;1.434;2023-04-24T04:20:38;11.80;99.90
14061;DHT22;7105;43.616;1.434;2023-04-24T04:23:04;11.80;99.90
14061;DHT22;7105;43.616;1.434;2023-04-24T04:25:29;11.80;99.90
14061;DHT22;7105;43.616;1.434;2023-04-24T04:27:55;11.70;99.90
14061;DHT22;7105;43.616;1.434;2023-04-24T04:30:21;11.70;99.90
14061;DHT22;7105;43.616;1.434;2023-04-24T04:32:47;11.70;99.90
14061;DHT22;7105;43.616;1.434;2023-04-24T04:35:12;11.70;99.90
14061;DHT22;7105;43.616;1.434;2023-04-24T04:37:38;11.60;99.90
14061;DHT22;7105;43.616;1.434;2023-04-24T04:40:05;11.60;99.90
14061;DHT22;7105;43.616;1.434;2023-04-24T04:42:32;11.50;99.90
14061;DHT22;7105;43.616;1.434;2023-04-24T04:45:00;11.50;99.90
14061;DHT22;7105;43.616;1.434;2023-04-24T04:47:26;11.50;99.90
14061;DHT22;7105;43.616;1.434;2023-04-24T04:49:52;11.60;99.90
14061;DHT22;7105;43.616;1.434;2023-04-24T04:52:18;11.60;99.90
14061;DHT22;7105;43.616;1.434;2023-04-24T04:54:44;11.60;99.90
14061;DHT22;7105;43.616;1.434;2023-04-24T04:57:10;11.70;99.90
14061;DHT22;7105;43.616;1.434;2023-04-24T04:59:36;11.70;99.90
14061;DHT22;7105;43.616;1.434;2023-04-24T05:02:02;11.80;99.90
14061;DHT22;7105;43.616;1.434;2023-04-24T05:04:28;11.80;99.90
14061;DHT22;7105;43.616;1.434;2023-04-24T05:06:54;11.90;99.90
14061;DHT22;7105;43.616;1.434;2023-04-24T05:09:19;12.00;99.90
14061;DHT22;7105;43.616;1.434;2023-04-24T05:11:45;12.00;99.90
14061;DHT22;7105;43.616;1.434;2023-04-24T05:14:11;12.00;99.90
14061;DHT22;7105;43.616;1.434;2023-04-24T05:16:38;12.00;99.90
14061;DHT22;7105;43.616;1.434;2023-04-24T05:19:04;12.00;99.90
14061;DHT22;7105;43.616;1.434;2023-04-24T05:21:30;12.10;99.90
14061;DHT22;7105;43.616;1.434;2023-04-24T05:23:56;12.10;99.90
14061;DHT22;7105;43.616;1.434;2023-04-24T05:26:22;12.20;99.90
14061;DHT22;7105;43.616;1.434;2023-04-24T05:28:49;12.20;99.90
14061;DHT22;7105;43.616;1.434;2023-04-24T05:31:15;12.20;99.90
14061;DHT22;7105;43.616;1.434;2023-04-24T05:33:41;12.30;99.90
14061;DHT22;7105;43.616;1.434;2023-04-24T05:36:07;12.40;99.90
14061;DHT22;7105;43.616;1.434;2023-04-24T05:38:32;12.50;99.90
14061;DHT22;7105;43.616;1.434;2023-04-24T05:40:58;12.60;99.90
14061;DHT22;7105;43.616;1.434;2023-04-24T05:43:24;12.70;99.90
14061;DHT22;7105;43.616;1.434;2023-04-24T05:45:50;12.90;99.90
14061;DHT22;7105;43.616;1.434;2023-04-24T05:48:16;13.00;99.90
14061;DHT22;7105;43.616;1.434;2023-04-24T05:50:41;13.10;99.90
14061;DHT22;7105;43.616;1.434;2023-04-24T05:53:07;13.20;99.90
14061;DHT22;7105;43.616;1.434;2023-04-24T05:55:33;13.20;99.90
14061;DHT22;7105;43.616;1.434;2023-04-24T05:57:59;13.30;99.90
14061;DHT22;7105;43.616;1.434;2023-04-24T06:00:25;13.30;99.90
14061;DHT22;7105;43.616;1.434;2023-04-24T06:02:51;13.30;99.90
14061;DHT22;7105;43.616;1.434;2023-04-24T06:05:18;13.10;99.90
14061;DHT22;7105;43.616;1.434;2023-04-24T06:07:44;13.10;99.90
14061;DHT22;7105;43.616;1.434;2023-04-24T06:10:10;12.90;99.90
14061;DHT22;7105;43.616;1.434;2023-04-24T06:12:36;12.90;99.90
14061;DHT22;7105;43.616;1.434;2023-04-24T06:15:03;12.80;99.90
14061;DHT22;7105;43.616;1.434;2023-04-24T06:17:29;12.80;99.90
14061;DHT22;7105;43.616;1.434;2023-04-24T06:19:54;12.90;99.90
14061;DHT22;7105;43.616;1.434;2023-04-24T06:22:20;12.80;99.90
14061;DHT22;7105;43.616;1.434;2023-04-24T06:24:46;13.00;99.90
14061;DHT22;7105;43.616;1.434;2023-04-24T06:27:13;13.00;99.90
14061;DHT22;7105;43.616;1.434;2023-04-24T06:29:39;12.90;99.90
14061;DHT22;7105;43.616;1.434;2023-04-24T06:32:05;12.90;99.90
14061;DHT22;7105;43.616;1.434;2023-04-24T06:34:31;12.80;99.90
14061;DHT22;7105;43.616;1.434;2023-04-24T06:36:58;12.90;99.90
14061;DHT22;7105;43.616;1.434;2023-04-24T06:39:24;12.90;99.90
14061;DHT22;7105;43.616;1.434;2023-04-24T06:41:49;12.80;99.90
14061;DHT22;7105;43.616;1.434;2023-04-24T06:44:15;12.90;99.90
14061;DHT22;7105;43.616;1.434;2023-04-24T06:46:42;13.00;99.90
14061;DHT22;7105;43.616;1.434;2023-04-24T06:49:07;13.10;99.90
14061;DHT22;7105;43.616;1.434;2023-04-24T06:51:33;13.20;99.90
14061;DHT22;7105;43.616;1.434;2023-04-24T06:53:59;13.10;99.90
14061;DHT22;7105;43.616;1.434;2023-04-24T06:56:25;13.00;99.90
14061;DHT22;7105;43.616;1.434;2023-04-24T06:58:51;13.00;99.90
14061;DHT22;7105;43.616;1.434;2023-04-24T07:01:17;13.00;99.90
14061;DHT22;7105;43.616;1.434;2023-04-24T07:03:43;13.10;99.90
14061;DHT22;7105;43.616;1.434;2023-04-24T07:06:09;13.10;99.90
14061;DHT22;7105;43.616;1.434;2023-04-24T07:08:36;13.20;99.90
14061;DHT22;7105;43.616;1.434;2023-04-24T07:11:02;13.00;99.90
14061;DHT22;7105;43.616;1.434;2023-04-24T07:13:28;13.00;99.90
14061;DHT22;7105;43.616;1.434;2023-04-24T07:15:54;12.90;99.90
14061;DHT22;7105;43.616;1.434;2023-04-24T07:18:22;12.90;99.90
14061;DHT22;7105;43.616;1.434;2023-04-24T07:20:47;12.90;99.90
14061;DHT22;7105;43.616;1.434;2023-04-24T07:23:15;12.90;99.90
14061;DHT22;7105;43.616;1.434;2023-04-24T07:25:41;12.70;99.90
14061;DHT22;7105;43.616;1.434;2023-04-24T07:28:07;12.70;99.90
14061;DHT22;7105;43.616;1.434;2023-04-24T07:30:32;12.80;99.90
14061;DHT22;7105;43.616;1.434;2023-04-24T07:32:58;12.70;99.90
14061;DHT22;7105;43.616;1.434;2023-04-24T07:35:26;12.80;99.90
14061;DHT22;7105;43.616;1.434;2023-04-24T07:37:53;12.90;99.90
14061;DHT22;7105;43.616;1.434;2023-04-24T07:40:19;13.30;99.90
14061;DHT22;7105;43.616;1.434;2023-04-24T07:42:45;13.40;99.90
14061;DHT22;7105;43.616;1.434;2023-04-24T07:45:13;13.70;99.90
14061;DHT22;7105;43.616;1.434;2023-04-24T07:47:40;13.30;99.90
14061;DHT22;7105;43.616;1.434;2023-04-24T07:50:09;13.40;99.90
14061;DHT22;7105;43.616;1.434;2023-04-24T07:52:35;13.30;99.90
14061;DHT22;7105;43.616;1.434;2023-04-24T07:55:01;13.50;99.90
14061;DHT22;7105;43.616;1.434;2023-04-24T07:57:28;15.00;99.90
14061;DHT22;7105;43.616;1.434;2023-04-24T07:59:54;21.30;99.90
14061;DHT22;7105;43.616;1.434;2023-04-24T08:02:20;18.40;99.90
14061;DHT22;7105;43.616;1.434;2023-04-24T08:04:47;16.50;99.90
14061;DHT22;7105;43.616;1.434;2023-04-24T08:07:12;15.20;99.90
14061;DHT22;7105;43.616;1.434;2023-04-24T08:09:38;14.80;99.90
14061;DHT22;7105;43.616;1.434;2023-04-24T08:12:04;14.70;99.90
14061;DHT22;7105;43.616;1.434;2023-04-24T08:14:30;14.60;99.90
14061;DHT22;7105;43.616;1.434;2023-04-24T08:16:55;14.50;99.90
14061;DHT22;7105;43.616;1.434;2023-04-24T08:19:21;14.90;99.90
14061;DHT22;7105;43.616;1.434;2023-04-24T08:21:47;14.40;99.90
14061;DHT22;7105;43.616;1.434;2023-04-24T08:24:13;14.30;99.90
14061;DHT22;7105;43.616;1.434;2023-04-24T08:26:39;14.40;99.90
14061;DHT22;7105;43.616;1.434;2023-04-24T08:29:05;15.70;99.90
14061;DHT22;7105;43.616;1.434;2023-04-24T08:31:32;16.20;99.90
14061;DHT22;7105;43.616;1.434;2023-04-24T08:33:58;15.60;99.90
14061;DHT22;7105;43.616;1.434;2023-04-24T08:36:25;15.70;99.90
14061;DHT22;7105;43.616;1.434;2023-04-24T08:38:51;15.60;99.90
14061;DHT22;7105;43.616;1.434;2023-04-24T08:41:18;15.00;99.90
14061;DHT22;7105;43.616;1.434;2023-04-24T08:43:46;14.70;99.90
14061;DHT22;7105;43.616;1.434;2023-04-24T08:46:13;16.90;99.90
14061;DHT22;7105;43.616;1.434;2023-04-24T08:48:39;22.00;99.90
14061;DHT22;7105;43.616;1.434;2023-04-24T08:51:07;23.70;99.90
14061;DHT22;7105;43.616;1.434;2023-04-24T08:53:33;24.80;99.90
14061;DHT22;7105;43.616;1.434;2023-04-24T08:56:02;20.20;99.90
14061;DHT22;7105;43.616;1.434;2023-04-24T08:58:28;17.70;99.90
14061;DHT22;7105;43.616;1.434;2023-04-24T09:00:55;17.70;99.90
14061;DHT22;7105;43.616;1.434;2023-04-24T09:03:21;21.60;99.90
14061;DHT22;7105;43.616;1.434;2023-04-24T09:05:48;21.50;99.90
14061;DHT22;7105;43.616;1.434;2023-04-24T09:08:18;18.30;99.90
14061;DHT22;7105;43.616;1.434;2023-04-24T09:10:44;17.50;99.90
14061;DHT22;7105;43.616;1.434;2023-04-24T09:13:10;16.30;99.90
14061;DHT22;7105;43.616;1.434;2023-04-24T09:15:37;15.40;99.90
14061;DHT22;7105;43.616;1.434;2023-04-24T09:18:03;15.00;99.90
14061;DHT22;7105;43.616;1.434;2023-04-24T09:20:29;15.40;99.90
14061;DHT22;7105;43.616;1.434;2023-04-24T09:22:57;15.60;99.90
14061;DHT22;7105;43.616;1.434;2023-04-24T09:25:31;15.80;99.90
14061;DHT22;7105;43.616;1.434;2023-04-24T09:28:03;15.40;99.90
14061;DHT22;7105;43.616;1.434;2023-04-24T09:30:30;15.30;99.90
14061;DHT22;7105;43.616;1.434;2023-04-24T09:33:13;15.70;99.90
14061;DHT22;7105;43.616;1.434;2023-04-24T09:35:42;15.50;99.90
14061;DHT22;7105;43.616;1.434;2023-04-24T09:38:13;15.60;99.90
14061;DHT22;7105;43.616;1.434;2023-04-24T09:40:39;15.70;99.90
14061;DHT22;7105;43.616;1.434;2023-04-24T09:43:10;16.10;99.90
14061;DHT22;7105;43.616;1.434;2023-04-24T09:45:37;15.90;99.90
14061;DHT22;7105;43.616;1.434;2023-04-24T09:48:03;16.30;99.90
14061;DHT22;7105;43.616;1.434;2023-04-24T09:50:30;17.00;99.90
14061;DHT22;7105;43.616;1.434;2023-04-24T09:52:58;17.20;99.90
14061;DHT22;7105;43.616;1.434;2023-04-24T09:55:25;17.40;99.90
14061;DHT22;7105;43.616;1.434;2023-04-24T09:57:54;17.60;99.90
14061;DHT22;7105;43.616;1.434;2023-04-24T10:00:24;17.30;99.90
14061;DHT22;7105;43.616;1.434;2023-04-24T10:05:32;16.20;99.90
14061;DHT22;7105;43.616;1.434;2023-04-24T10:08:01;16.40;99.90
14061;DHT22;7105;43.616;1.434;2023-04-24T10:10:28;16.20;99.90
14061;DHT22;7105;43.616;1.434;2023-04-24T10:12:54;16.00;99.90
14061;DHT22;7105;43.616;1.434;2023-04-24T10:15:20;16.50;99.90
14061;DHT22;7105;43.616;1.434;2023-04-24T10:17:50;16.60;99.90
14061;DHT22;7105;43.616;1.434;2023-04-24T10:20:23;17.00;99.90
14061;DHT22;7105;43.616;1.434;2023-04-24T10:22:50;17.00;99.90
14061;DHT22;7105;43.616;1.434;2023-04-24T10:25:26;17.00;99.90
14061;DHT22;7105;43.616;1.434;2023-04-24T10:27:53;16.80;99.90
14061;DHT22;7105;43.616;1.434;2023-04-24T10:30:22;17.90;99.90
14061;DHT22;7105;43.616;1.434;2023-04-24T10:32:48;18.40;99.90
14061;DHT22;7105;43.616;1.434;2023-04-24T10:35:15;18.50;99.90
14061;DHT22;7105;43.616;1.434;2023-04-24T10:37:46;18.50;99.90
14061;DHT22;7105;43.616;1.434;2023-04-24T10:40:25;17.80;99.90
14061;DHT22;7105;43.616;1.434;2023-04-24T10:42:52;18.10;99.90
14061;DHT22;7105;43.616;1.434;2023-04-24T10:45:22;18.10;99.90
14061;DHT22;7105;43.616;1.434;2023-04-24T10:48:04;18.30;99.90
14061;DHT22;7105;43.616;1.434;2023-04-24T10:50:51;18.00;99.90
14061;DHT22;7105;43.616;1.434;2023-04-24T10:53:18;17.60;99.90
14061;DHT22;7105;43.616;1.434;2023-04-24T10:56:08;17.00;99.90
14061;DHT22;7105;43.616;1.434;2023-04-24T10:58:49;16.40;99.90
14061;DHT22;7105;43.616;1.434;2023-04-24T11:03:58;16.30;99.90
14061;DHT22;7105;43.616;1.434;2023-04-24T11:06:36;16.30;99.90
14061;DHT22;7105;43.616;1.434;2023-04-24T11:09:09;16.60;99.90
14061;DHT22;7105;43.616;1.434;2023-04-24T11:11:38;16.60;99.90
14061;DHT22;7105;43.616;1.434;2023-04-24T11:14:09;17.00;99.90
14061;DHT22;7105;43.616;1.434;2023-04-24T11:21:47;16.60;99.90
14061;DHT22;7105;43.616;1.434;2023-04-24T11:24:48;16.60;99.90
14061;DHT22;7105;43.616;1.434;2023-04-24T11:27:19;16.70;99.90
14061;DHT22;7105;43.616;1.434;2023-04-24T11:35:05;16.20;99.90
14061;DHT22;7105;43.616;1.434;2023-04-24T11:37:38;16.30;99.90
14061;DHT22;7105;43.616;1.434;2023-04-24T11:40:11;16.20;99.90
14061;DHT22;7105;43.616;1.434;2023-04-24T11:42:39;16.50;99.90
14061;DHT22;7105;43.616;1.434;2023-04-24T11:45:09;17.00;99.90
14061;DHT22;7105;43.616;1.434;2023-04-24T11:47:36;16.90;99.90
14061;DHT22;7105;43.616;1.434;2023-04-24T11:50:07;16.90;99.90
14061;DHT22;7105;43.616;1.434;2023-04-24T11:52:36;16.70;99.90
14061;DHT22;7105;43.616;1.434;2023-04-24T11:55:02;17.10;99.90
14061;DHT22;7105;43.616;1.434;2023-04-24T11:57:29;16.90;99.90
14061;DHT22;7105;43.616;1.434;2023-04-24T12:00:03;17.00;99.90
14061;DHT22;7105;43.616;1.434;2023-04-24T12:02:30;17.40;99.90
14061;DHT22;7105;43.616;1.434;2023-04-24T12:04:56;17.70;99.90
14061;DHT22;7105;43.616;1.434;2023-04-24T12:07:23;17.90;99.90
14061;DHT22;7105;43.616;1.434;2023-04-24T12:09:57;18.00;99.90
14061;DHT22;7105;43.616;1.434;2023-04-24T12:12:25;18.30;99.90
14061;DHT22;7105;43.616;1.434;2023-04-24T12:14:56;19.10;99.90
14061;DHT22;7105;43.616;1.434;2023-04-24T12:17:27;18.90;99.90
14061;DHT22;7105;43.616;1.434;2023-04-24T12:20:07;19.00;99.90
14061;DHT22;7105;43.616;1.434;2023-04-24T12:22:52;17.90;99.90
14061;DHT22;7105;43.616;1.434;2023-04-24T12:25:23;17.00;99.90
14061;DHT22;7105;43.616;1.434;2023-04-24T12:28:10;16.90;99.90
14061;DHT22;7105;43.616;1.434;2023-04-24T12:30:48;17.50;99.90
14061;DHT22;7105;43.616;1.434;2023-04-24T12:33:21;17.50;99.90
14061;DHT22;7105;43.616;1.434;2023-04-24T12:35:51;17.30;99.90
14061;DHT22;7105;43.616;1.434;2023-04-24T12:38:22;17.20;99.90
14061;DHT22;7105;43.616;1.434;2023-04-24T12:41:00;17.90;99.90
14061;DHT22;7105;43.616;1.434;2023-04-24T12:43:26;18.00;99.90
14061;DHT22;7105;43.616;1.434;2023-04-24T12:45:51;18.10;99.90
14061;DHT22;7105;43.616;1.434;2023-04-24T12:48:17;17.80;99.90
14061;DHT22;7105;43.616;1.434;2023-04-24T12:50:43;18.40;99.90
14061;DHT22;7105;43.616;1.434;2023-04-24T12:53:09;18.20;99.90
14061;DHT22;7105;43.616;1.434;2023-04-24T12:55:36;18.30;99.90
14061;DHT22;7105;43.616;1.434;2023-04-24T12:58:02;17.80;99.90
14061;DHT22;7105;43.616;1.434;2023-04-24T13:00:28;18.10;99.90
14061;DHT22;7105;43.616;1.434;2023-04-24T13:02:54;17.80;99.90
14061;DHT22;7105;43.616;1.434;2023-04-24T13:05:20;17.90;99.90
14061;DHT22;7105;43.616;1.434;2023-04-24T13:07:46;18.20;99.90
14061;DHT22;7105;43.616;1.434;2023-04-24T13:10:12;18.40;99.90
14061;DHT22;7105;43.616;1.434;2023-04-24T13:12:38;18.00;99.90
14061;DHT22;7105;43.616;1.434;2023-04-24T13:15:05;17.60;99.90
14061;DHT22;7105;43.616;1.434;2023-04-24T13:17:31;17.70;99.90
14061;DHT22;7105;43.616;1.434;2023-04-24T13:19:56;17.40;99.90
14061;DHT22;7105;43.616;1.434;2023-04-24T13:22:22;18.20;99.90
14061;DHT22;7105;43.616;1.434;2023-04-24T13:24:48;17.90;99.90
14061;DHT22;7105;43.616;1.434;2023-04-24T13:27:14;17.40;99.90
14061;DHT22;7105;43.616;1.434;2023-04-24T13:29:40;17.60;99.90
14061;DHT22;7105;43.616;1.434;2023-04-24T13:32:06;18.40;99.90
14061;DHT22;7105;43.616;1.434;2023-04-24T13:34:32;18.70;99.90
14061;DHT22;7105;43.616;1.434;2023-04-24T13:36:58;18.80;99.90
14061;DHT22;7105;43.616;1.434;2023-04-24T13:39:24;19.20;99.90
14061;DHT22;7105;43.616;1.434;2023-04-24T13:41:50;19.00;99.90
14061;DHT22;7105;43.616;1.434;2023-04-24T13:44:17;18.40;99.90
14061;DHT22;7105;43.616;1.434;2023-04-24T13:46:45;17.90;99.90
14061;DHT22;7105;43.616;1.434;2023-04-24T13:49:12;17.90;99.90
14061;DHT22;7105;43.616;1.434;2023-04-24T13:51:38;17.80;99.90
14061;DHT22;7105;43.616;1.434;2023-04-24T13:54:05;18.00;99.90
14061;DHT22;7105;43.616;1.434;2023-04-24T13:56:31;17.60;99.90
14061;DHT22;7105;43.616;1.434;2023-04-24T13:58:56;17.80;99.90
14061;DHT22;7105;43.616;1.434;2023-04-24T14:01:22;17.90;99.90
14061;DHT22;7105;43.616;1.434;2023-04-24T14:03:55;17.90;99.90
14061;DHT22;7105;43.616;1.434;2023-04-24T14:06:21;18.20;99.90
14061;DHT22;7105;43.616;1.434;2023-04-24T14:08:47;18.30;99.90
14061;DHT22;7105;43.616;1.434;2023-04-24T14:11:13;18.40;99.90
14061;DHT22;7105;43.616;1.434;2023-04-24T14:13:41;18.10;99.90
14061;DHT22;7105;43.616;1.434;2023-04-24T14:16:07;18.00;99.90
14061;DHT22;7105;43.616;1.434;2023-04-24T14:18:32;18.30;99.90
14061;DHT22;7105;43.616;1.434;2023-04-24T14:20:58;18.60;99.90
14061;DHT22;7105;43.616;1.434;2023-04-24T14:23:24;18.50;99.90
14061;DHT22;7105;43.616;1.434;2023-04-24T14:25:50;18.80;99.90
14061;DHT22;7105;43.616;1.434;2023-04-24T14:28:18;18.80;99.90
14061;DHT22;7105;43.616;1.434;2023-04-24T14:30:44;19.00;99.90
14061;DHT22;7105;43.616;1.434;2023-04-24T14:33:10;19.30;99.90
14061;DHT22;7105;43.616;1.434;2023-04-24T14:35:37;18.90;99.90
14061;DHT22;7105;43.616;1.434;2023-04-24T14:38:05;18.40;99.90
14061;DHT22;7105;43.616;1.434;2023-04-24T14:40:31;18.20;99.90
14061;DHT22;7105;43.616;1.434;2023-04-24T14:42:58;18.10;99.90
14061;DHT22;7105;43.616;1.434;2023-04-24T14:45:24;18.30;99.90
14061;DHT22;7105;43.616;1.434;2023-04-24T14:47:50;18.40;99.90
14061;DHT22;7105;43.616;1.434;2023-04-24T14:50:16;18.40;99.90
14061;DHT22;7105;43.616;1.434;2023-04-24T14:52:42;17.90;99.90
14061;DHT22;7105;43.616;1.434;2023-04-24T14:55:08;17.80;99.90
14061;DHT22;7105;43.616;1.434;2023-04-24T14:57:34;18.10;99.90
14061;DHT22;7105;43.616;1.434;2023-04-24T15:00:02;18.70;99.90
14061;DHT22;7105;43.616;1.434;2023-04-24T15:02:29;18.70;99.90
14061;DHT22;7105;43.616;1.434;2023-04-24T15:04:54;18.10;99.90
14061;DHT22;7105;43.616;1.434;2023-04-24T15:07:20;18.20;99.90
14061;DHT22;7105;43.616;1.434;2023-04-24T15:09:45;17.80;99.90
14061;DHT22;7105;43.616;1.434;2023-04-24T15:12:12;18.00;99.90
14061;DHT22;7105;43.616;1.434;2023-04-24T15:14:38;18.50;99.90
14061;DHT22;7105;43.616;1.434;2023-04-24T15:17:04;18.30;99.90
14061;DHT22;7105;43.616;1.434;2023-04-24T15:19:31;18.70;99.90
14061;DHT22;7105;43.616;1.434;2023-04-24T15:21:57;18.70;99.90
14061;DHT22;7105;43.616;1.434;2023-04-24T15:24:23;18.50;99.90
14061;DHT22;7105;43.616;1.434;2023-04-24T15:26:48;18.70;99.90
14061;DHT22;7105;43.616;1.434;2023-04-24T15:29:14;18.60;99.90
14061;DHT22;7105;43.616;1.434;2023-04-24T15:31:40;18.70;99.90
14061;DHT22;7105;43.616;1.434;2023-04-24T15:34:06;18.50;99.90
14061;DHT22;7105;43.616;1.434;2023-04-24T15:36:32;18.50;99.90
14061;DHT22;7105;43.616;1.434;2023-04-24T15:38:58;18.90;99.90
14061;DHT22;7105;43.616;1.434;2023-04-24T15:41:23;19.10;99.90
14061;DHT22;7105;43.616;1.434;2023-04-24T15:43:49;19.00;99.90
14061;DHT22;7105;43.616;1.434;2023-04-24T15:46:15;18.80;99.90
14061;DHT22;7105;43.616;1.434;2023-04-24T15:48:42;18.60;99.90
14061;DHT22;7105;43.616;1.434;2023-04-24T15:51:07;18.50;99.90
14061;DHT22;7105;43.616;1.434;2023-04-24T15:53:33;18.40;99.90
14061;DHT22;7105;43.616;1.434;2023-04-24T15:55:59;18.20;99.90
14061;DHT22;7105;43.616;1.434;2023-04-24T15:58:25;18.40;99.90